createdAt,value
2022-11-08T00:02:08.726Z,2.30
2022-11-08T00:05:31.394Z,2.15
2022-11-08T00:08:54.318Z,2.33
2022-11-08T00:12:17.498Z,2.30
2022-11-08T00:15:21.503Z,2.50
2022-11-08T00:18:25.219Z,2.30
2022-11-08T00:21:28.951Z,2.60
2022-11-08T00:24:34.698Z,2.35
2022-11-08T00:27:38.391Z,2.47
2022-11-08T00:30:42.393Z,2.70
2022-11-08T00:33:46.484Z,2.45
2022-11-08T00:36:52.602Z,2.30
2022-11-08T00:39:56.406Z,2.25
2022-11-08T00:43:00.126Z,2.30
2022-11-08T00:46:04.135Z,2.30
2022-11-08T00:49:08.656Z,2.28
2022-11-08T00:52:12.510Z,1.83
2022-11-08T00:55:16.569Z,2.40
2022-11-08T00:58:24.921Z,2.45
2022-11-08T01:01:31.176Z,2.60
2022-11-08T01:04:35.430Z,2.38
2022-11-08T01:07:39.211Z,2.60
2022-11-08T01:10:45.769Z,2.42
2022-11-08T01:13:50.988Z,2.88
2022-11-08T01:16:54.982Z,2.20
2022-11-08T01:19:58.973Z,2.35
2022-11-08T01:23:02.753Z,2.55
2022-11-08T01:26:11.061Z,2.35
2022-11-08T01:29:15.033Z,2.67
2022-11-08T01:32:18.944Z,2.35
2022-11-08T01:35:22.912Z,2.35
2022-11-08T01:38:27.360Z,2.58
2022-11-08T01:41:31.257Z,2.25
2022-11-08T01:44:57.369Z,2.65
2022-11-08T01:48:01.541Z,2.60
2022-11-08T01:51:07.563Z,2.25
2022-11-08T01:54:22.013Z,2.42
2022-11-08T01:57:33.005Z,2.30
2022-11-08T02:00:39.300Z,2.80
2022-11-08T02:03:43.621Z,2.40
2022-11-08T02:06:48.708Z,2.33
2022-11-08T02:09:53.361Z,2.33
2022-11-08T02:12:59.652Z,2.70
2022-11-08T02:16:13.840Z,2.20
2022-11-08T02:19:29.699Z,2.35
2022-11-08T02:22:41.223Z,2.45
2022-11-08T02:25:45.237Z,2.45
2022-11-08T02:28:50.094Z,2.85
2022-11-08T02:31:55.294Z,2.50
2022-11-08T02:34:59.290Z,2.17
2022-11-08T02:38:03.420Z,2.17
2022-11-08T02:41:07.521Z,2.28
2022-11-08T02:44:11.660Z,2.20
2022-11-08T02:47:15.893Z,2.30
2022-11-08T02:50:19.678Z,2.30
2022-11-08T02:53:23.514Z,2.15
2022-11-08T02:56:27.554Z,2.60
2022-11-08T02:59:31.281Z,2.50
2022-11-08T03:02:34.950Z,2.30
2022-11-08T03:05:38.759Z,2.10
2022-11-08T03:08:42.843Z,2.30
2022-11-08T03:11:46.643Z,2.30
2022-11-08T03:14:50.769Z,2.72
2022-11-08T03:17:59.999Z,2.22
2022-11-08T03:21:04.058Z,2.35
2022-11-08T03:24:08.613Z,2.50
2022-11-08T03:27:15.188Z,2.45
2022-11-08T03:30:19.490Z,2.55
2022-11-08T03:33:23.447Z,2.47
2022-11-08T03:36:27.447Z,2.70
2022-11-08T03:39:31.541Z,2.33
2022-11-08T03:42:35.598Z,2.60
2022-11-08T03:45:39.598Z,2.50
2022-11-08T03:48:43.521Z,2.28
2022-11-08T03:51:47.229Z,2.53
2022-11-08T03:54:51.278Z,2.30
2022-11-08T03:57:55.908Z,2.60
2022-11-08T04:01:04.171Z,2.45
2022-11-08T04:04:09.100Z,2.28
2022-11-08T04:07:13.176Z,2.30
2022-11-08T04:10:17.886Z,2.88
2022-11-08T04:13:40.887Z,2.65
2022-11-08T04:16:45.374Z,2.63
2022-11-08T04:20:08.332Z,2.40
2022-11-08T04:23:13.223Z,2.30
2022-11-08T04:26:18.447Z,2.40
2022-11-08T04:29:22.219Z,2.95
2022-11-08T04:32:26.079Z,2.30
2022-11-08T04:35:31.626Z,2.53
2022-11-08T04:38:36.542Z,2.83
2022-11-08T04:41:40.812Z,2.38
2022-11-08T04:44:44.834Z,2.30
2022-11-08T04:47:49.294Z,2.50
2022-11-08T04:50:53.310Z,2.50
2022-11-08T04:54:00.271Z,2.50
2022-11-08T04:57:04.435Z,2.30
2022-11-08T05:00:09.032Z,2.17
2022-11-08T05:03:13.155Z,3.15
2022-11-08T05:06:20.996Z,2.28
2022-11-08T05:09:24.879Z,2.60
2022-11-08T05:12:28.719Z,2.38
2022-11-08T05:15:32.656Z,2.60
2022-11-08T05:18:36.455Z,2.42
2022-11-08T05:21:58.914Z,2.53
2022-11-08T05:25:03.052Z,2.33
2022-11-08T05:28:07.183Z,2.45
2022-11-08T05:31:11.816Z,2.45
2022-11-08T05:34:15.790Z,2.85
2022-11-08T05:37:19.632Z,2.38
2022-11-08T05:40:23.364Z,2.22
2022-11-08T05:43:27.259Z,3.22
2022-11-08T05:46:31.335Z,2.65
2022-11-08T05:49:35.542Z,2.40
2022-11-08T05:52:39.896Z,2.65
2022-11-08T05:55:44.248Z,3.03
2022-11-08T05:58:51.285Z,2.83
2022-11-08T06:01:55.369Z,2.60
2022-11-08T06:04:59.903Z,2.92
2022-11-08T06:08:04.201Z,2.85
2022-11-08T06:11:14.527Z,2.55
2022-11-08T06:14:18.196Z,2.40
2022-11-08T06:17:26.012Z,2.40
2022-11-08T06:20:33.371Z,2.95
2022-11-08T06:23:37.100Z,2.53
2022-11-08T06:26:41.255Z,2.65
2022-11-08T06:29:45.213Z,2.35
2022-11-08T06:32:49.108Z,2.55
2022-11-08T06:35:53.200Z,2.80
2022-11-08T06:38:59.440Z,2.70
2022-11-08T06:42:03.279Z,2.95
2022-11-08T06:45:07.566Z,2.92
2022-11-08T06:48:11.539Z,3.00
2022-11-08T06:51:15.462Z,2.70
2022-11-08T06:54:23.224Z,2.63
2022-11-08T06:57:29.812Z,2.70
2022-11-08T07:00:34.281Z,2.65
2022-11-08T07:03:38.685Z,2.97
2022-11-08T07:06:43.173Z,2.67
2022-11-08T07:09:47.260Z,3.10
2022-11-08T07:13:04.935Z,2.55
2022-11-08T07:16:09.462Z,2.60
2022-11-08T07:19:13.688Z,2.60
2022-11-08T07:22:17.419Z,2.72
2022-11-08T07:25:21.502Z,2.60
2022-11-08T07:28:25.521Z,2.50
2022-11-08T07:31:29.535Z,2.45
2022-11-08T07:34:33.512Z,2.13
2022-11-08T07:37:37.708Z,3.00
2022-11-08T07:40:41.991Z,2.65
2022-11-08T07:43:46.121Z,2.25
2022-11-08T07:46:50.221Z,2.38
2022-11-08T07:49:54.205Z,2.10
2022-11-08T07:52:58.747Z,2.25
2022-11-08T07:56:02.483Z,2.25
2022-11-08T07:59:06.363Z,6.28
2022-11-08T08:02:12.096Z,2.50
2022-11-08T08:05:16.482Z,2.30
2022-11-08T08:08:21.085Z,2.22
2022-11-08T08:11:29.459Z,2.30
2022-11-08T08:14:37.108Z,2.50
2022-11-08T08:17:40.910Z,2.45
2022-11-08T08:20:46.833Z,2.30
2022-11-08T08:23:50.644Z,2.30
2022-11-08T08:26:55.048Z,2.25
2022-11-08T08:29:59.111Z,2.50
2022-11-08T08:36:30.903Z,2.00
2022-11-08T08:39:34.967Z,2.33
2022-11-08T08:42:38.810Z,2.08
2022-11-08T08:45:43.638Z,2.67
2022-11-08T08:48:47.986Z,2.40
2022-11-08T08:51:51.951Z,2.08
2022-11-08T08:54:55.762Z,2.20
2022-11-08T08:57:59.648Z,2.10
2022-11-08T09:04:30.341Z,2.00
2022-11-08T09:07:34.418Z,2.08
2022-11-08T09:10:38.872Z,1.90
2022-11-08T09:13:42.969Z,2.40
2022-11-08T09:16:47.061Z,1.88
2022-11-08T09:19:55.908Z,1.65
2022-11-08T09:23:03.010Z,2.00
2022-11-08T09:26:06.931Z,2.08
2022-11-08T09:29:11.395Z,1.95
2022-11-08T09:32:15.500Z,1.85
2022-11-08T09:35:19.500Z,1.83
2022-11-08T09:38:23.828Z,1.95
2022-11-08T09:41:43.282Z,1.90
2022-11-08T09:45:12.068Z,2.28
2022-11-08T09:48:32.043Z,2.38
2022-11-08T09:51:36.809Z,2.30
2022-11-08T09:54:47.277Z,1.70
2022-11-08T09:58:03.915Z,1.63
2022-11-08T10:01:11.329Z,2.10
2022-11-08T10:04:17.892Z,1.95
2022-11-08T10:08:06.573Z,2.20
2022-11-08T10:11:29.155Z,2.60
2022-11-08T10:14:53.393Z,2.47
2022-11-08T10:18:34.778Z,2.30
2022-11-08T10:21:57.293Z,2.33
2022-11-08T10:25:02.821Z,2.10
2022-11-08T10:28:07.908Z,1.85
2022-11-08T10:31:13.340Z,1.70
2022-11-08T10:34:23.539Z,1.60
2022-11-08T10:37:28.621Z,1.40
2022-11-08T10:40:59.942Z,1.50
2022-11-08T10:44:16.508Z,1.60
2022-11-08T10:47:20.551Z,1.55
2022-11-08T10:50:43.164Z,1.65
2022-11-08T10:53:48.720Z,1.58
2022-11-08T10:56:55.859Z,1.67
2022-11-08T11:00:28.274Z,1.63
2022-11-08T11:03:32.851Z,1.73
2022-11-08T11:06:36.790Z,1.50
2022-11-08T11:09:41.164Z,1.70
2022-11-08T11:12:50.849Z,1.75
2022-11-08T11:16:03.101Z,1.80
2022-11-08T11:19:14.915Z,1.70
2022-11-08T11:22:28.617Z,1.70
2022-11-08T11:25:33.165Z,1.73
2022-11-08T11:28:37.393Z,1.80
2022-11-08T11:31:44.425Z,1.92
2022-11-08T11:34:58.368Z,1.60
2022-11-08T11:38:11.053Z,1.60
2022-11-08T11:41:26.279Z,1.70
2022-11-08T11:44:39.848Z,1.58
2022-11-08T11:47:48.043Z,1.50
2022-11-08T11:50:52.186Z,1.67
2022-11-08T11:53:57.195Z,1.70
2022-11-08T11:57:09.023Z,1.70
2022-11-08T12:00:15.153Z,1.90
2022-11-08T12:03:33.550Z,2.05
2022-11-08T12:07:06.013Z,1.60
2022-11-08T12:10:48.125Z,1.52
2022-11-08T12:14:01.378Z,1.77
2022-11-08T12:17:50.135Z,2.20
2022-11-08T12:21:13.387Z,1.98
2022-11-08T12:24:22.899Z,1.50
2022-11-08T12:27:32.879Z,1.48
2022-11-08T12:31:04.907Z,1.67
2022-11-08T12:34:46.259Z,1.85
2022-11-08T12:38:41.278Z,1.70
2022-11-08T12:42:26.489Z,1.85
2022-11-08T12:45:57.162Z,2.15
2022-11-08T12:49:18.766Z,2.00
2022-11-08T12:52:46.115Z,1.60
2022-11-08T12:55:52.859Z,1.90
2022-11-08T12:58:57.439Z,1.70
2022-11-08T13:02:03.618Z,1.83
2022-11-08T13:05:33.288Z,1.67
2022-11-08T13:09:03.220Z,1.65
2022-11-08T13:12:26.250Z,1.92
2022-11-08T13:15:30.571Z,1.52
2022-11-08T13:18:36.813Z,1.88
2022-11-08T13:21:41.983Z,1.40
2022-11-08T13:24:46.204Z,1.60
2022-11-08T13:27:49.944Z,1.42
2022-11-08T13:31:01.430Z,1.52
2022-11-08T13:34:26.710Z,1.50
2022-11-08T13:37:54.537Z,1.63
2022-11-08T13:41:17.064Z,1.83
2022-11-08T13:44:55.067Z,1.45
2022-11-08T13:48:02.011Z,1.60
2022-11-08T13:51:35.631Z,1.40
2022-11-08T13:54:51.376Z,1.40
2022-11-08T13:58:30.216Z,1.45
2022-11-08T14:01:46.519Z,1.15
2022-11-08T14:04:50.631Z,1.15
2022-11-08T14:08:17.841Z,1.20
2022-11-08T14:11:27.885Z,1.20
2022-11-08T14:14:47.303Z,1.10
2022-11-08T14:18:04.463Z,1.20
2022-11-08T14:21:08.296Z,1.30
2022-11-08T14:24:18.953Z,1.10
2022-11-08T14:27:38.453Z,1.17
2022-11-08T14:30:50.564Z,1.25
2022-11-08T14:33:55.447Z,1.40
2022-11-08T14:37:01.833Z,1.20
2022-11-08T14:40:06.435Z,1.20
2022-11-08T14:43:11.968Z,1.20
2022-11-08T14:46:25.451Z,1.20
2022-11-08T14:49:34.429Z,1.20
2022-11-08T14:52:38.259Z,1.13
2022-11-08T14:55:42.208Z,1.63
2022-11-08T14:58:48.096Z,1.73
2022-11-08T15:01:51.836Z,1.55
2022-11-08T15:04:55.726Z,1.52
2022-11-08T15:08:00.584Z,1.90
2022-11-08T15:11:11.537Z,1.85
2022-11-08T15:14:22.395Z,1.55
2022-11-08T15:17:32.608Z,1.60
2022-11-08T15:20:37.266Z,1.55
2022-11-08T15:23:43.340Z,1.63
2022-11-08T15:27:06.585Z,1.90
2022-11-08T15:30:16.930Z,2.00
2022-11-08T15:33:25.857Z,2.38
2022-11-08T15:36:35.281Z,1.70
2022-11-08T15:39:39.965Z,1.90
2022-11-08T15:42:46.094Z,1.60
2022-11-08T15:45:53.546Z,1.92
2022-11-08T15:48:58.874Z,2.00
2022-11-08T15:52:03.691Z,1.90
2022-11-08T15:55:08.627Z,2.10
2022-11-08T15:58:25.719Z,2.28
2022-11-08T16:01:29.928Z,1.95
2022-11-08T16:04:34.033Z,1.80
2022-11-08T16:07:37.992Z,1.80
2022-11-08T16:10:50.783Z,1.98
2022-11-08T16:13:54.725Z,2.50
2022-11-08T16:16:58.813Z,2.58
2022-11-08T16:20:24.331Z,1.80
2022-11-08T16:23:28.622Z,1.90
2022-11-08T16:26:32.936Z,1.70
2022-11-08T16:29:36.803Z,1.90
2022-11-08T16:32:41.689Z,1.60
2022-11-08T16:35:46.206Z,1.83
2022-11-08T16:38:54.485Z,1.80
2022-11-08T16:42:00.989Z,1.85
2022-11-08T16:45:05.074Z,1.80
2022-11-08T16:48:16.475Z,2.00
2022-11-08T16:51:23.235Z,2.08
2022-11-08T16:54:28.576Z,2.00
2022-11-08T16:57:34.965Z,1.80
2022-11-08T17:00:41.605Z,1.83
2022-11-08T17:03:45.901Z,2.05
2022-11-08T17:06:50.023Z,1.73
2022-11-08T17:09:54.308Z,2.72
2022-11-08T17:12:58.319Z,1.58
2022-11-08T17:16:02.267Z,1.70
2022-11-08T17:19:06.005Z,2.00
2022-11-08T17:22:09.799Z,1.85
2022-11-08T17:25:16.478Z,1.60
2022-11-08T17:28:20.590Z,1.90
2022-11-08T17:31:24.624Z,1.85
2022-11-08T17:34:29.540Z,2.40
2022-11-08T17:37:34.099Z,1.95
2022-11-08T17:40:37.921Z,1.67
2022-11-08T17:43:43.269Z,1.55
2022-11-08T17:46:48.066Z,1.60
2022-11-08T17:49:52.908Z,2.10
2022-11-08T17:52:56.913Z,2.17
2022-11-08T17:56:04.679Z,2.00
2022-11-08T17:59:08.666Z,2.35
2022-11-08T18:02:12.777Z,2.33
2022-11-08T18:05:17.229Z,2.30
2022-11-08T18:08:26.674Z,2.17
2022-11-08T18:11:31.433Z,2.40
2022-11-08T18:14:35.495Z,2.60
2022-11-08T18:17:39.133Z,2.03
2022-11-08T18:20:42.927Z,2.00
2022-11-08T18:23:48.018Z,1.77
2022-11-08T18:26:52.274Z,1.80
2022-11-08T18:29:56.440Z,1.80
2022-11-08T18:33:00.272Z,2.20
2022-11-08T18:36:06.597Z,2.00
2022-11-08T18:39:12.091Z,1.80
2022-11-08T18:42:19.235Z,2.15
2022-11-08T18:45:23.095Z,2.13
2022-11-08T18:48:27.061Z,2.00
2022-11-08T18:51:31.160Z,2.00
2022-11-08T18:54:35.145Z,1.98
2022-11-08T18:57:39.179Z,2.08
2022-11-08T19:00:43.171Z,1.98
2022-11-08T19:03:46.974Z,1.90
2022-11-08T19:06:54.591Z,2.20
2022-11-08T19:09:58.881Z,2.05
2022-11-08T19:13:02.862Z,2.15
2022-11-08T19:16:11.900Z,2.00
2022-11-08T19:19:16.337Z,2.10
2022-11-08T19:22:20.395Z,2.15
2022-11-08T19:25:24.624Z,2.15
2022-11-08T19:28:33.142Z,2.25
2022-11-08T19:31:38.515Z,2.10
2022-11-08T19:34:45.233Z,1.80
2022-11-08T19:37:49.119Z,1.98
2022-11-08T19:40:52.870Z,2.15
2022-11-08T19:43:57.479Z,2.10
2022-11-08T19:47:01.986Z,1.92
2022-11-08T19:50:06.215Z,2.03
2022-11-08T19:53:10.500Z,1.92
2022-11-08T19:56:17.820Z,3.30
2022-11-08T19:59:21.845Z,1.95
2022-11-08T20:02:26.060Z,1.95
2022-11-08T20:05:29.790Z,1.90
2022-11-08T20:08:33.797Z,2.17
2022-11-08T20:11:40.427Z,2.30
2022-11-08T20:14:44.555Z,1.88
2022-11-08T20:17:48.872Z,1.92
2022-11-08T20:20:52.836Z,1.85
2022-11-08T20:23:57.279Z,2.00
2022-11-08T20:27:01.117Z,2.20
2022-11-08T20:30:05.646Z,1.92
2022-11-08T20:33:09.661Z,1.90
2022-11-08T20:36:15.706Z,2.15
2022-11-08T20:39:19.764Z,2.30
2022-11-08T20:42:24.102Z,2.10
2022-11-08T20:45:27.991Z,2.25
2022-11-08T20:48:32.294Z,2.22
2022-11-08T20:51:36.214Z,2.40
2022-11-08T20:54:43.916Z,2.35
2022-11-08T20:57:47.795Z,2.10
2022-11-08T21:00:58.236Z,2.30
2022-11-08T21:04:03.333Z,2.00
2022-11-08T21:08:00.929Z,2.25
2022-11-08T21:13:52.069Z,2.22
2022-11-08T21:20:20.169Z,1.90
2022-11-08T21:23:24.281Z,2.20
2022-11-08T21:26:28.564Z,2.00
2022-11-08T21:29:32.490Z,1.90
2022-11-08T21:32:36.612Z,2.22
2022-11-08T21:35:40.798Z,2.00
2022-11-08T21:38:44.706Z,1.90
2022-11-08T21:41:48.679Z,2.03
2022-11-08T21:44:52.965Z,2.20
2022-11-08T21:47:57.205Z,2.00
2022-11-08T21:51:05.185Z,2.10
2022-11-08T21:54:09.219Z,2.10
2022-11-08T21:57:13.355Z,2.00
2022-11-08T22:00:17.473Z,2.00
2022-11-08T22:03:21.928Z,2.08
2022-11-08T22:06:27.140Z,2.05
2022-11-08T22:09:31.249Z,2.13
2022-11-08T22:12:35.407Z,2.20
2022-11-08T22:15:39.650Z,1.98
2022-11-08T22:19:05.485Z,2.13
2022-11-08T22:22:08.136Z,2.30
2022-11-08T22:25:12.489Z,1.95
2022-11-08T22:28:16.834Z,2.00
2022-11-08T22:31:21.103Z,2.00
2022-11-08T22:34:25.080Z,1.80
2022-11-08T22:37:29.164Z,1.90
2022-11-08T22:40:33.240Z,1.90
2022-11-08T22:43:37.437Z,1.80
2022-11-08T22:46:42.813Z,1.85
2022-11-08T22:49:46.781Z,2.00
2022-11-08T22:52:50.891Z,2.00
2022-11-08T22:55:54.783Z,1.85
2022-11-08T22:58:58.741Z,1.75
2022-11-08T23:02:02.485Z,1.88
2022-11-08T23:05:06.420Z,1.58
2022-11-08T23:08:10.712Z,1.80
2022-11-08T23:11:33.970Z,1.75
2022-11-08T23:14:56.861Z,2.00
2022-11-08T23:18:01.152Z,1.80
2022-11-08T23:21:24.000Z,1.88
2022-11-08T23:24:28.576Z,1.90
2022-11-08T23:27:51.485Z,1.90
2022-11-08T23:31:14.162Z,2.03
2022-11-08T23:34:18.292Z,1.75
2022-11-08T23:37:22.341Z,2.00
2022-11-08T23:40:45.073Z,2.22
2022-11-08T23:44:08.045Z,1.80
2022-11-08T23:47:12.438Z,2.10
2022-11-08T23:50:16.210Z,1.80
2022-11-08T23:53:22.204Z,1.98
2022-11-08T23:56:27.872Z,1.83
2022-11-08T23:59:31.999Z,1.80
